sensor_id;sensor_type;location;lat;lon;timestamp;pressure;altitude;pressure_sealevel;temperature;humidity
69971;BME280;57301;50.328;8.542;2022-11-25T00:01:16;98362.88;;;-0.21;95.60
69971;BME280;57301;50.328;8.542;2022-11-25T00:03:44;98371.13;;;-0.13;95.01
69971;BME280;57301;50.328;8.542;2022-11-25T00:06:23;98362.84;;;-0.05;95.35
69971;BME280;57301;50.328;8.542;2022-11-25T00:08:53;98357.66;;;-0.07;94.37
69971;BME280;57301;50.328;8.542;2022-11-25T00:11:20;98362.00;;;-0.06;94.16
69971;BME280;57301;50.328;8.542;2022-11-25T00:13:47;98361.53;;;-0.12;93.98
69971;BME280;57301;50.328;8.542;2022-11-25T00:16:19;98359.91;;;-0.15;94.45
69971;BME280;57301;50.328;8.542;2022-11-25T00:18:51;98355.50;;;-0.14;93.83
69971;BME280;57301;50.328;8.542;2022-11-25T00:21:20;98350.16;;;-0.13;93.75
69971;BME280;57301;50.328;8.542;2022-11-25T00:23:55;98346.81;;;-0.15;93.88
69971;BME280;57301;50.328;8.542;2022-11-25T00:26:23;98336.88;;;-0.24;93.19
69971;BME280;57301;50.328;8.542;2022-11-25T00:28:50;98337.53;;;-0.20;93.56
69971;BME280;57301;50.328;8.542;2022-11-25T00:31:22;98335.84;;;-0.21;93.58
69971;BME280;57301;50.328;8.542;2022-11-25T00:33:50;98342.97;;;-0.23;93.36
69971;BME280;57301;50.328;8.542;2022-11-25T00:36:25;98339.75;;;-0.29;93.61
69971;BME280;57301;50.328;8.542;2022-11-25T00:39:01;98339.66;;;-0.27;93.54
69971;BME280;57301;50.328;8.542;2022-11-25T00:41:30;98340.91;;;-0.18;94.28
69971;BME280;57301;50.328;8.542;2022-11-25T00:44:17;98339.31;;;-0.21;93.86
69971;BME280;57301;50.328;8.542;2022-11-25T00:47:08;98344.66;;;-0.22;94.12
69971;BME280;57301;50.328;8.542;2022-11-25T00:49:36;98347.00;;;-0.18;93.98
69971;BME280;57301;50.328;8.542;2022-11-25T00:52:04;98344.66;;;-0.22;94.14
69971;BME280;57301;50.328;8.542;2022-11-25T00:54:31;98347.72;;;-0.30;95.78
69971;BME280;57301;50.328;8.542;2022-11-25T00:56:58;98337.88;;;-0.27;96.44
69971;BME280;57301;50.328;8.542;2022-11-25T00:59:24;98339.88;;;-0.16;95.76
69971;BME280;57301;50.328;8.542;2022-11-25T01:01:51;98341.81;;;-0.19;96.24
69971;BME280;57301;50.328;8.542;2022-11-25T01:04:18;98333.81;;;-0.16;96.36
69971;BME280;57301;50.328;8.542;2022-11-25T01:06:44;98344.03;;;-0.12;96.21
69971;BME280;57301;50.328;8.542;2022-11-25T01:09:13;98350.13;;;0.03;96.00
69971;BME280;57301;50.328;8.542;2022-11-25T01:11:40;98349.28;;;0.03;95.04
69971;BME280;57301;50.328;8.542;2022-11-25T01:14:07;98346.19;;;0.10;95.04
69971;BME280;57301;50.328;8.542;2022-11-25T01:16:34;98340.00;;;0.11;94.84
69971;BME280;57301;50.328;8.542;2022-11-25T01:19:01;98347.50;;;0.03;94.38
69971;BME280;57301;50.328;8.542;2022-11-25T01:21:30;98349.38;;;0.01;94.21
69971;BME280;57301;50.328;8.542;2022-11-25T01:24:02;98349.63;;;-0.04;94.21
69971;BME280;57301;50.328;8.542;2022-11-25T01:26:29;98337.84;;;-0.11;94.26
69971;BME280;57301;50.328;8.542;2022-11-25T01:28:58;98338.59;;;-0.09;94.45
69971;BME280;57301;50.328;8.542;2022-11-25T01:31:29;98348.69;;;-0.03;95.24
69971;BME280;57301;50.328;8.542;2022-11-25T01:34:10;98341.03;;;0.09;94.77
69971;BME280;57301;50.328;8.542;2022-11-25T01:36:37;98340.19;;;0.08;94.29
69971;BME280;57301;50.328;8.542;2022-11-25T01:39:04;98346.44;;;0.06;94.35
69971;BME280;57301;50.328;8.542;2022-11-25T01:41:33;98340.38;;;0.05;94.30
69971;BME280;57301;50.328;8.542;2022-11-25T01:44:20;98347.13;;;0.09;94.29
69971;BME280;57301;50.328;8.542;2022-11-25T01:47:00;98342.56;;;0.13;93.57
69971;BME280;57301;50.328;8.542;2022-11-25T01:49:41;98335.44;;;0.01;93.31
69971;BME280;57301;50.328;8.542;2022-11-25T01:52:52;98335.72;;;-0.34;95.10
69971;BME280;57301;50.328;8.542;2022-11-25T01:55:15;98332.66;;;-0.27;96.80
69971;BME280;57301;50.328;8.542;2022-11-25T01:57:46;98329.03;;;-0.24;96.61
69971;BME280;57301;50.328;8.542;2022-11-25T02:00:14;98326.09;;;-0.19;96.42
69971;BME280;57301;50.328;8.542;2022-11-25T02:02:41;98329.50;;;-0.03;96.03
69971;BME280;57301;50.328;8.542;2022-11-25T02:05:10;98326.63;;;0.02;95.44
69971;BME280;57301;50.328;8.542;2022-11-25T02:07:43;98332.81;;;0.15;95.03
69971;BME280;57301;50.328;8.542;2022-11-25T02:10:24;98332.53;;;0.19;94.15
69971;BME280;57301;50.328;8.542;2022-11-25T02:12:52;98326.63;;;0.16;93.73
69971;BME280;57301;50.328;8.542;2022-11-25T02:15:19;98331.69;;;0.19;93.39
69971;BME280;57301;50.328;8.542;2022-11-25T02:17:46;98324.19;;;0.13;93.53
69971;BME280;57301;50.328;8.542;2022-11-25T02:20:18;98323.44;;;0.25;93.14
69971;BME280;57301;50.328;8.542;2022-11-25T02:23:07;98327.66;;;0.28;92.83
69971;BME280;57301;50.328;8.542;2022-11-25T02:25:39;98323.53;;;0.23;92.92
69971;BME280;57301;50.328;8.542;2022-11-25T02:28:17;98315.88;;;0.20;92.54
69971;BME280;57301;50.328;8.542;2022-11-25T02:30:45;98323.72;;;0.20;92.21
69971;BME280;57301;50.328;8.542;2022-11-25T02:33:13;98321.00;;;0.22;92.57
69971;BME280;57301;50.328;8.542;2022-11-25T02:38:41;98313.31;;;0.05;94.06
69971;BME280;57301;50.328;8.542;2022-11-25T02:41:09;98315.00;;;0.06;94.19
69971;BME280;57301;50.328;8.542;2022-11-25T02:43:38;98306.50;;;0.16;94.39
69971;BME280;57301;50.328;8.542;2022-11-25T02:46:16;98308.00;;;0.20;94.01
69971;BME280;57301;50.328;8.542;2022-11-25T02:48:48;98305.53;;;0.17;93.94
69971;BME280;57301;50.328;8.542;2022-11-25T02:51:35;98308.56;;;0.25;93.94
69971;BME280;57301;50.328;8.542;2022-11-25T02:54:02;98300.69;;;0.25;93.87
69971;BME280;57301;50.328;8.542;2022-11-25T02:56:31;98297.88;;;0.29;94.20
69971;BME280;57301;50.328;8.542;2022-11-25T02:58:58;98307.53;;;0.28;94.66
69971;BME280;57301;50.328;8.542;2022-11-25T03:01:25;98299.19;;;0.21;93.74
69971;BME280;57301;50.328;8.542;2022-11-25T03:03:52;98298.06;;;0.25;93.18
69971;BME280;57301;50.328;8.542;2022-11-25T03:06:18;98295.53;;;0.10;93.28
69971;BME280;57301;50.328;8.542;2022-11-25T03:08:45;98295.44;;;0.11;93.72
69971;BME280;57301;50.328;8.542;2022-11-25T03:11:12;98301.25;;;0.02;95.18
69971;BME280;57301;50.328;8.542;2022-11-25T03:13:38;98311.63;;;0.04;95.99
69971;BME280;57301;50.328;8.542;2022-11-25T03:16:06;98309.31;;;0.13;96.13
69971;BME280;57301;50.328;8.542;2022-11-25T03:18:32;98308.00;;;0.20;95.17
69971;BME280;57301;50.328;8.542;2022-11-25T03:20:59;98307.22;;;0.18;95.13
69971;BME280;57301;50.328;8.542;2022-11-25T03:23:26;98311.47;;;0.21;94.13
69971;BME280;57301;50.328;8.542;2022-11-25T03:25:53;98308.56;;;0.25;93.18
69971;BME280;57301;50.328;8.542;2022-11-25T03:28:19;98305.47;;;0.19;93.09
69971;BME280;57301;50.328;8.542;2022-11-25T03:30:45;98300.78;;;0.24;92.42
69971;BME280;57301;50.328;8.542;2022-11-25T03:33:12;98297.03;;;0.28;92.46
69971;BME280;57301;50.328;8.542;2022-11-25T03:35:38;98285.69;;;0.28;91.46
69971;BME280;57301;50.328;8.542;2022-11-25T03:38:05;98280.84;;;0.07;93.01
69971;BME280;57301;50.328;8.542;2022-11-25T03:40:31;98290.28;;;0.24;92.51
69971;BME280;57301;50.328;8.542;2022-11-25T03:42:58;98286.00;;;0.37;93.87
69971;BME280;57301;50.328;8.542;2022-11-25T03:45:24;98283.00;;;0.70;98.42
69971;BME280;57301;50.328;8.542;2022-11-25T03:47:51;98287.66;;;0.79;97.67
69971;BME280;57301;50.328;8.542;2022-11-25T03:50:17;98289.56;;;0.77;95.67
69971;BME280;57301;50.328;8.542;2022-11-25T03:52:44;98282.63;;;0.76;93.98
69971;BME280;57301;50.328;8.542;2022-11-25T03:55:10;98286.75;;;0.80;94.28
69971;BME280;57301;50.328;8.542;2022-11-25T03:57:38;98292.84;;;0.81;95.77
69971;BME280;57301;50.328;8.542;2022-11-25T04:00:06;98292.00;;;1.07;99.02
69971;BME280;57301;50.328;8.542;2022-11-25T04:02:32;98291.84;;;0.96;97.19
69971;BME280;57301;50.328;8.542;2022-11-25T04:04:59;98298.41;;;1.16;96.82
69971;BME280;57301;50.328;8.542;2022-11-25T04:07:25;98293.38;;;1.13;95.66
69971;BME280;57301;50.328;8.542;2022-11-25T04:09:52;98295.97;;;1.40;94.86
69971;BME280;57301;50.328;8.542;2022-11-25T04:12:18;98298.75;;;1.12;93.53
69971;BME280;57301;50.328;8.542;2022-11-25T04:15:04;98299.38;;;1.15;94.54
69971;BME280;57301;50.328;8.542;2022-11-25T04:17:30;98285.53;;;1.26;96.33
69971;BME280;57301;50.328;8.542;2022-11-25T04:19:57;98294.97;;;1.28;94.89
69971;BME280;57301;50.328;8.542;2022-11-25T04:22:23;98291.97;;;1.34;96.88
69971;BME280;57301;50.328;8.542;2022-11-25T04:24:50;98288.94;;;1.53;96.86
69971;BME280;57301;50.328;8.542;2022-11-25T04:27:16;98290.75;;;1.66;96.14
69971;BME280;57301;50.328;8.542;2022-11-25T04:29:45;98293.63;;;1.75;98.31
69971;BME280;57301;50.328;8.542;2022-11-25T04:32:12;98290.16;;;1.87;98.84
69971;BME280;57301;50.328;8.542;2022-11-25T04:34:39;98287.09;;;2.19;98.68
69971;BME280;57301;50.328;8.542;2022-11-25T04:37:05;98296.13;;;2.40;98.94
69971;BME280;57301;50.328;8.542;2022-11-25T04:39:31;98290.63;;;2.56;98.94
69971;BME280;57301;50.328;8.542;2022-11-25T04:41:58;98287.66;;;2.61;97.45
69971;BME280;57301;50.328;8.542;2022-11-25T04:44:43;98282.38;;;2.74;98.15
69971;BME280;57301;50.328;8.542;2022-11-25T04:47:29;98291.56;;;2.92;100.00
69971;BME280;57301;50.328;8.542;2022-11-25T04:49:57;98291.03;;;3.59;100.00
69971;BME280;57301;50.328;8.542;2022-11-25T04:52:24;98290.19;;;3.93;100.00
69971;BME280;57301;50.328;8.542;2022-11-25T04:54:51;98283.72;;;4.09;100.00
69971;BME280;57301;50.328;8.542;2022-11-25T04:57:17;98285.16;;;4.13;100.00
69971;BME280;57301;50.328;8.542;2022-11-25T04:59:45;98284.44;;;4.22;100.00
69971;BME280;57301;50.328;8.542;2022-11-25T05:02:20;98287.34;;;4.30;98.30
69971;BME280;57301;50.328;8.542;2022-11-25T05:04:50;98286.91;;;3.90;97.93
69971;BME280;57301;50.328;8.542;2022-11-25T05:07:18;98279.97;;;4.11;99.03
69971;BME280;57301;50.328;8.542;2022-11-25T05:09:46;98295.22;;;4.08;96.66
69971;BME280;57301;50.328;8.542;2022-11-25T05:12:18;98294.84;;;4.01;99.01
69971;BME280;57301;50.328;8.542;2022-11-25T05:14:45;98294.88;;;4.12;97.84
69971;BME280;57301;50.328;8.542;2022-11-25T05:17:15;98289.34;;;4.15;97.22
69971;BME280;57301;50.328;8.542;2022-11-25T05:19:42;98295.84;;;4.34;98.00
69971;BME280;57301;50.328;8.542;2022-11-25T05:22:13;98291.97;;;4.04;98.30
69971;BME280;57301;50.328;8.542;2022-11-25T05:24:40;98301.69;;;4.03;99.48
69971;BME280;57301;50.328;8.542;2022-11-25T05:27:06;98294.50;;;4.17;100.00
69971;BME280;57301;50.328;8.542;2022-11-25T05:29:33;98295.00;;;4.22;100.00
69971;BME280;57301;50.328;8.542;2022-11-25T05:32:00;98290.06;;;4.28;99.21
69971;BME280;57301;50.328;8.542;2022-11-25T05:34:26;98288.41;;;4.39;99.91
69971;BME280;57301;50.328;8.542;2022-11-25T05:36:53;98282.78;;;4.54;100.00
69971;BME280;57301;50.328;8.542;2022-11-25T05:39:19;98289.97;;;4.52;98.67
69971;BME280;57301;50.328;8.542;2022-11-25T05:41:46;98290.31;;;4.59;98.39
69971;BME280;57301;50.328;8.542;2022-11-25T05:44:13;98281.31;;;4.73;99.80
69971;BME280;57301;50.328;8.542;2022-11-25T05:46:46;98286.06;;;4.90;99.54
69971;BME280;57301;50.328;8.542;2022-11-25T05:49:15;98293.16;;;4.78;98.05
69971;BME280;57301;50.328;8.542;2022-11-25T05:51:42;98281.16;;;4.85;99.42
69971;BME280;57301;50.328;8.542;2022-11-25T05:54:08;98282.72;;;4.88;98.89
69971;BME280;57301;50.328;8.542;2022-11-25T05:56:35;98283.06;;;4.95;98.57
69971;BME280;57301;50.328;8.542;2022-11-25T05:59:02;98288.66;;;5.12;99.05
69971;BME280;57301;50.328;8.542;2022-11-25T06:01:29;98290.69;;;5.09;98.59
69971;BME280;57301;50.328;8.542;2022-11-25T06:04:01;98290.13;;;5.05;99.24
69971;BME280;57301;50.328;8.542;2022-11-25T06:06:29;98290.09;;;5.17;98.56
69971;BME280;57301;50.328;8.542;2022-11-25T06:08:55;98291.31;;;5.12;96.97
69971;BME280;57301;50.328;8.542;2022-11-25T06:11:22;98303.31;;;5.17;99.21
69971;BME280;57301;50.328;8.542;2022-11-25T06:13:50;98304.00;;;5.30;97.92
69971;BME280;57301;50.328;8.542;2022-11-25T06:16:19;98307.28;;;5.22;96.97
69971;BME280;57301;50.328;8.542;2022-11-25T06:18:47;98313.13;;;5.26;97.23
69971;BME280;57301;50.328;8.542;2022-11-25T06:21:14;98314.56;;;5.30;95.61
69971;BME280;57301;50.328;8.542;2022-11-25T06:23:40;98313.72;;;5.29;96.55
69971;BME280;57301;50.328;8.542;2022-11-25T06:26:15;98313.69;;;5.41;95.94
69971;BME280;57301;50.328;8.542;2022-11-25T06:28:43;98319.00;;;5.41;94.98
69971;BME280;57301;50.328;8.542;2022-11-25T06:31:15;98314.72;;;5.49;94.27
69971;BME280;57301;50.328;8.542;2022-11-25T06:33:45;98314.38;;;5.54;94.99
69971;BME280;57301;50.328;8.542;2022-11-25T06:36:12;98315.31;;;5.85;91.98
69971;BME280;57301;50.328;8.542;2022-11-25T06:38:43;98314.31;;;5.97;92.55
69971;BME280;57301;50.328;8.542;2022-11-25T06:41:10;98316.16;;;6.06;92.48
69971;BME280;57301;50.328;8.542;2022-11-25T06:43:37;98311.31;;;6.11;91.87
69971;BME280;57301;50.328;8.542;2022-11-25T06:46:08;98314.28;;;6.18;92.09
69971;BME280;57301;50.328;8.542;2022-11-25T06:48:36;98327.13;;;6.23;92.03
69971;BME280;57301;50.328;8.542;2022-11-25T06:51:05;98330.53;;;6.13;91.68
69971;BME280;57301;50.328;8.542;2022-11-25T06:53:33;98345.72;;;6.11;91.96
69971;BME280;57301;50.328;8.542;2022-11-25T06:56:02;98342.31;;;6.21;91.90
69971;BME280;57301;50.328;8.542;2022-11-25T06:58:29;98339.22;;;6.15;92.03
69971;BME280;57301;50.328;8.542;2022-11-25T07:01:02;98335.78;;;6.25;91.33
69971;BME280;57301;50.328;8.542;2022-11-25T07:03:29;98328.06;;;6.42;91.08
69971;BME280;57301;50.328;8.542;2022-11-25T07:05:57;98335.41;;;6.60;90.28
69971;BME280;57301;50.328;8.542;2022-11-25T07:08:25;98337.00;;;6.72;89.52
69971;BME280;57301;50.328;8.542;2022-11-25T07:11:11;98337.03;;;6.82;89.44
69971;BME280;57301;50.328;8.542;2022-11-25T07:13:39;98335.47;;;6.79;89.70
69971;BME280;57301;50.328;8.542;2022-11-25T07:16:06;98334.66;;;6.79;89.12
69971;BME280;57301;50.328;8.542;2022-11-25T07:18:36;98337.63;;;6.95;89.22
69971;BME280;57301;50.328;8.542;2022-11-25T07:21:14;98332.63;;;7.02;89.06
69971;BME280;57301;50.328;8.542;2022-11-25T07:23:42;98330.44;;;7.07;88.99
69971;BME280;57301;50.328;8.542;2022-11-25T07:26:10;98340.75;;;7.10;87.60
69971;BME280;57301;50.328;8.542;2022-11-25T07:28:38;98340.69;;;6.90;88.40
69971;BME280;57301;50.328;8.542;2022-11-25T07:31:09;98342.25;;;7.03;88.53
69971;BME280;57301;50.328;8.542;2022-11-25T07:33:54;98348.06;;;6.87;89.82
69971;BME280;57301;50.328;8.542;2022-11-25T07:36:22;98351.06;;;7.03;89.36
69971;BME280;57301;50.328;8.542;2022-11-25T07:38:48;98352.81;;;7.33;88.14
69971;BME280;57301;50.328;8.542;2022-11-25T07:41:17;98353.94;;;7.40;86.96
69971;BME280;57301;50.328;8.542;2022-11-25T07:43:50;98354.38;;;7.55;85.91
69971;BME280;57301;50.328;8.542;2022-11-25T07:46:20;98351.84;;;7.53;85.99
69971;BME280;57301;50.328;8.542;2022-11-25T07:48:54;98360.34;;;7.38;86.17
69971;BME280;57301;50.328;8.542;2022-11-25T07:51:49;98357.16;;;7.44;84.85
69971;BME280;57301;50.328;8.542;2022-11-25T07:54:13;98373.34;;;7.60;84.70
69971;BME280;57301;50.328;8.542;2022-11-25T07:56:41;98377.41;;;7.64;82.86
69971;BME280;57301;50.328;8.542;2022-11-25T07:59:14;98375.06;;;7.71;82.85
69971;BME280;57301;50.328;8.542;2022-11-25T08:01:41;98374.66;;;7.75;82.18
69971;BME280;57301;50.328;8.542;2022-11-25T08:04:10;98373.25;;;7.91;82.16
69971;BME280;57301;50.328;8.542;2022-11-25T08:06:44;98378.00;;;7.77;82.73
69971;BME280;57301;50.328;8.542;2022-11-25T08:09:14;98372.97;;;7.74;83.21
69971;BME280;57301;50.328;8.542;2022-11-25T08:11:43;98383.72;;;7.82;84.43
69971;BME280;57301;50.328;8.542;2022-11-25T08:14:10;98388.06;;;7.74;84.46
69971;BME280;57301;50.328;8.542;2022-11-25T08:16:37;98384.69;;;7.62;85.82
69971;BME280;57301;50.328;8.542;2022-11-25T08:19:06;98389.44;;;7.68;86.17
69971;BME280;57301;50.328;8.542;2022-11-25T08:21:33;98386.50;;;7.62;86.49
69971;BME280;57301;50.328;8.542;2022-11-25T08:24:00;98389.03;;;7.63;87.45
69971;BME280;57301;50.328;8.542;2022-11-25T08:26:30;98382.19;;;7.90;86.45
69971;BME280;57301;50.328;8.542;2022-11-25T08:28:58;98382.19;;;7.99;85.92
69971;BME280;57301;50.328;8.542;2022-11-25T08:31:34;98385.69;;;7.90;86.39
69971;BME280;57301;50.328;8.542;2022-11-25T08:34:01;98393.09;;;7.96;87.07
69971;BME280;57301;50.328;8.542;2022-11-25T08:36:28;98400.34;;;8.04;86.87
69971;BME280;57301;50.328;8.542;2022-11-25T08:38:57;98392.69;;;8.11;85.83
69971;BME280;57301;50.328;8.542;2022-11-25T08:41:34;98394.75;;;8.26;86.12
69971;BME280;57301;50.328;8.542;2022-11-25T08:44:02;98399.06;;;8.47;85.47
69971;BME280;57301;50.328;8.542;2022-11-25T08:46:31;98403.97;;;8.51;85.91
69971;BME280;57301;50.328;8.542;2022-11-25T08:49:04;98410.84;;;8.54;85.44
69971;BME280;57301;50.328;8.542;2022-11-25T08:51:33;98420.44;;;8.65;84.13
69971;BME280;57301;50.328;8.542;2022-11-25T08:54:00;98419.34;;;8.57;84.69
69971;BME280;57301;50.328;8.542;2022-11-25T08:56:27;98419.53;;;8.37;85.66
69971;BME280;57301;50.328;8.542;2022-11-25T08:58:54;98418.25;;;8.50;85.44
69971;BME280;57301;50.328;8.542;2022-11-25T09:01:21;98422.31;;;8.54;85.33
69971;BME280;57301;50.328;8.542;2022-11-25T09:03:50;98425.53;;;8.48;84.51
69971;BME280;57301;50.328;8.542;2022-11-25T09:06:17;98428.59;;;8.15;85.62
69971;BME280;57301;50.328;8.542;2022-11-25T09:08:45;98426.22;;;8.12;85.53
69971;BME280;57301;50.328;8.542;2022-11-25T09:11:12;98426.63;;;7.97;85.20
69971;BME280;57301;50.328;8.542;2022-11-25T09:13:39;98429.41;;;7.96;85.99
69971;BME280;57301;50.328;8.542;2022-11-25T09:16:06;98434.03;;;7.94;86.61
69971;BME280;57301;50.328;8.542;2022-11-25T09:18:34;98436.50;;;7.57;88.88
69971;BME280;57301;50.328;8.542;2022-11-25T09:21:10;98444.16;;;7.60;88.69
69971;BME280;57301;50.328;8.542;2022-11-25T09:23:38;98445.72;;;7.62;88.94
69971;BME280;57301;50.328;8.542;2022-11-25T09:26:06;98453.69;;;7.62;89.27
69971;BME280;57301;50.328;8.542;2022-11-25T09:28:33;98443.91;;;7.72;89.07
69971;BME280;57301;50.328;8.542;2022-11-25T09:31:07;98447.94;;;7.57;88.79
69971;BME280;57301;50.328;8.542;2022-11-25T09:33:34;98458.03;;;7.63;89.13
69971;BME280;57301;50.328;8.542;2022-11-25T09:36:02;98457.88;;;7.65;88.69
69971;BME280;57301;50.328;8.542;2022-11-25T09:38:28;98460.28;;;7.77;88.48
69971;BME280;57301;50.328;8.542;2022-11-25T09:41:00;98466.97;;;7.72;88.27
69971;BME280;57301;50.328;8.542;2022-11-25T09:46:48;98460.44;;;8.15;86.23
69971;BME280;57301;50.328;8.542;2022-11-25T09:52:39;98473.75;;;8.05;86.67
69971;BME280;57301;50.328;8.542;2022-11-25T09:55:22;98476.53;;;8.13;86.76
69971;BME280;57301;50.328;8.542;2022-11-25T10:00:41;98479.72;;;7.97;87.26
69971;BME280;57301;50.328;8.542;2022-11-25T10:03:33;98479.88;;;8.34;86.50
69971;BME280;57301;50.328;8.542;2022-11-25T10:06:22;98481.69;;;8.34;86.28
69971;BME280;57301;50.328;8.542;2022-11-25T10:09:01;98484.66;;;8.41;86.17
69971;BME280;57301;50.328;8.542;2022-11-25T10:14:28;98486.75;;;8.47;86.66
69971;BME280;57301;50.328;8.542;2022-11-25T10:22:35;98497.03;;;9.08;83.87
69971;BME280;57301;50.328;8.542;2022-11-25T10:25:13;98503.69;;;9.31;83.23
69971;BME280;57301;50.328;8.542;2022-11-25T10:27:48;98493.13;;;9.77;81.24
69971;BME280;57301;50.328;8.542;2022-11-25T10:30:23;98504.50;;;9.32;80.81
69971;BME280;57301;50.328;8.542;2022-11-25T10:33:02;98494.47;;;9.81;82.09
69971;BME280;57301;50.328;8.542;2022-11-25T10:35:34;98497.06;;;10.18;78.14
69971;BME280;57301;50.328;8.542;2022-11-25T10:38:07;98497.34;;;9.97;79.23
69971;BME280;57301;50.328;8.542;2022-11-25T10:40:46;98503.22;;;10.01;79.40
69971;BME280;57301;50.328;8.542;2022-11-25T10:43:14;98503.38;;;9.72;80.31
69971;BME280;57301;50.328;8.542;2022-11-25T10:45:51;98509.41;;;10.19;79.80
69971;BME280;57301;50.328;8.542;2022-11-25T10:51:11;98516.94;;;9.78;79.64
69971;BME280;57301;50.328;8.542;2022-11-25T10:53:41;98504.97;;;9.64;80.95
69971;BME280;57301;50.328;8.542;2022-11-25T10:56:22;98514.88;;;9.72;80.71
69971;BME280;57301;50.328;8.542;2022-11-25T10:58:49;98520.47;;;9.96;79.09
69971;BME280;57301;50.328;8.542;2022-11-25T11:01:24;98526.31;;;9.82;80.03
69971;BME280;57301;50.328;8.542;2022-11-25T11:04:05;98527.59;;;9.78;79.72
69971;BME280;57301;50.328;8.542;2022-11-25T11:06:41;98526.69;;;9.87;80.31
69971;BME280;57301;50.328;8.542;2022-11-25T11:09:30;98528.28;;;9.53;80.85
69971;BME280;57301;50.328;8.542;2022-11-25T11:12:08;98536.97;;;9.82;81.08
69971;BME280;57301;50.328;8.542;2022-11-25T11:14:38;98530.41;;;9.77;80.19
69971;BME280;57301;50.328;8.542;2022-11-25T11:17:05;98537.38;;;9.50;81.87
69971;BME280;57301;50.328;8.542;2022-11-25T11:19:31;98541.78;;;9.69;80.60
69971;BME280;57301;50.328;8.542;2022-11-25T11:22:14;98543.31;;;9.72;80.51
69971;BME280;57301;50.328;8.542;2022-11-25T11:24:41;98542.06;;;10.21;79.31
69971;BME280;57301;50.328;8.542;2022-11-25T11:27:19;98545.41;;;10.51;77.81
69971;BME280;57301;50.328;8.542;2022-11-25T11:29:46;98545.50;;;11.02;75.71
69971;BME280;57301;50.328;8.542;2022-11-25T11:32:22;98545.44;;;10.94;74.15
69971;BME280;57301;50.328;8.542;2022-11-25T11:48:19;98555.13;;;10.95;73.27
69971;BME280;57301;50.328;8.542;2022-11-25T11:50:55;98559.63;;;10.41;74.87
69971;BME280;57301;50.328;8.542;2022-11-25T11:53:44;98552.63;;;11.20;73.03
69971;BME280;57301;50.328;8.542;2022-11-25T11:56:39;98558.06;;;11.88;70.19
69971;BME280;57301;50.328;8.542;2022-11-25T11:59:29;98555.66;;;13.27;67.62
69971;BME280;57301;50.328;8.542;2022-11-25T12:05:13;98573.03;;;13.47;64.11
69971;BME280;57301;50.328;8.542;2022-11-25T12:08:08;98573.03;;;14.03;62.57
69971;BME280;57301;50.328;8.542;2022-11-25T12:10:56;98573.28;;;13.77;62.48
69971;BME280;57301;50.328;8.542;2022-11-25T12:13:47;98583.31;;;13.75;61.77
69971;BME280;57301;50.328;8.542;2022-11-25T12:16:26;98582.34;;;13.67;61.42
69971;BME280;57301;50.328;8.542;2022-11-25T12:21:39;98581.69;;;12.68;64.70
69971;BME280;57301;50.328;8.542;2022-11-25T12:29:49;98592.94;;;13.04;64.36
69971;BME280;57301;50.328;8.542;2022-11-25T12:37:46;98606.16;;;11.62;68.14
69971;BME280;57301;50.328;8.542;2022-11-25T12:40:22;98595.03;;;11.75;68.26
69971;BME280;57301;50.328;8.542;2022-11-25T12:42:54;98599.25;;;11.08;69.71
69971;BME280;57301;50.328;8.542;2022-11-25T12:45:24;98591.25;;;11.08;70.25
69971;BME280;57301;50.328;8.542;2022-11-25T12:47:51;98604.66;;;10.80;71.68
69971;BME280;57301;50.328;8.542;2022-11-25T12:50:23;98603.81;;;11.15;70.89
69971;BME280;57301;50.328;8.542;2022-11-25T12:53:20;98614.22;;;11.44;70.27
69971;BME280;57301;50.328;8.542;2022-11-25T12:55:53;98614.78;;;11.30;69.63
69971;BME280;57301;50.328;8.542;2022-11-25T12:58:47;98624.50;;;10.95;70.69
69971;BME280;57301;50.328;8.542;2022-11-25T13:04:56;98623.94;;;11.10;71.39
69971;BME280;57301;50.328;8.542;2022-11-25T13:15:40;98640.78;;;11.28;70.70
69971;BME280;57301;50.328;8.542;2022-11-25T13:18:11;98643.94;;;10.88;71.17
69971;BME280;57301;50.328;8.542;2022-11-25T13:20:45;98641.56;;;11.02;71.45
69971;BME280;57301;50.328;8.542;2022-11-25T13:23:45;98636.28;;;11.11;71.16
69971;BME280;57301;50.328;8.542;2022-11-25T13:36:56;98666.84;;;11.34;70.85
69971;BME280;57301;50.328;8.542;2022-11-25T13:39:36;98669.84;;;11.31;69.91
69971;BME280;57301;50.328;8.542;2022-11-25T13:42:19;98675.25;;;11.03;71.45
69971;BME280;57301;50.328;8.542;2022-11-25T13:44:55;98666.56;;;11.01;72.00
69971;BME280;57301;50.328;8.542;2022-11-25T13:50:03;98675.88;;;11.15;71.41
69971;BME280;57301;50.328;8.542;2022-11-25T13:52:36;98681.69;;;10.93;71.94
69971;BME280;57301;50.328;8.542;2022-11-25T13:55:35;98685.72;;;10.52;73.06
69971;BME280;57301;50.328;8.542;2022-11-25T14:25:20;98714.78;;;10.72;72.37
69971;BME280;57301;50.328;8.542;2022-11-25T14:27:50;98720.34;;;10.79;72.85
69971;BME280;57301;50.328;8.542;2022-11-25T14:30:26;98718.13;;;10.57;73.58
69971;BME280;57301;50.328;8.542;2022-11-25T14:33:02;98727.25;;;10.07;75.73
69971;BME280;57301;50.328;8.542;2022-11-25T14:35:39;98723.13;;;10.32;74.78
69971;BME280;57301;50.328;8.542;2022-11-25T14:38:27;98736.56;;;10.40;74.04
69971;BME280;57301;50.328;8.542;2022-11-25T14:41:02;98746.97;;;10.34;74.28
69971;BME280;57301;50.328;8.542;2022-11-25T14:43:37;98745.41;;;9.84;75.69
69971;BME280;57301;50.328;8.542;2022-11-25T14:46:13;98740.34;;;9.81;75.75
69971;BME280;57301;50.328;8.542;2022-11-25T14:48:42;98745.66;;;9.91;75.73
69971;BME280;57301;50.328;8.542;2022-11-25T14:51:12;98741.19;;;9.82;75.83
69971;BME280;57301;50.328;8.542;2022-11-25T14:53:41;98761.38;;;9.55;77.25
69971;BME280;57301;50.328;8.542;2022-11-25T14:56:16;98756.06;;;9.36;78.15
69971;BME280;57301;50.328;8.542;2022-11-25T14:58:48;98750.59;;;9.57;77.88
69971;BME280;57301;50.328;8.542;2022-11-25T15:01:21;98756.34;;;9.62;77.34
69971;BME280;57301;50.328;8.542;2022-11-25T15:03:49;98757.91;;;9.64;77.70
69971;BME280;57301;50.328;8.542;2022-11-25T15:06:17;98761.69;;;9.52;77.52
69971;BME280;57301;50.328;8.542;2022-11-25T15:08:55;98759.72;;;9.45;77.83
69971;BME280;57301;50.328;8.542;2022-11-25T15:11:25;98771.34;;;9.43;77.61
69971;BME280;57301;50.328;8.542;2022-11-25T15:16:22;98775.41;;;9.28;77.96
69971;BME280;57301;50.328;8.542;2022-11-25T15:19:02;98771.19;;;9.35;77.85